Lamco Airport

Jump to: basic info | weather | comments

Related pages: nearby airports | nearby navaids | notams | map

Basic information (top)

Codes: UCN GLLB
Location: lon 5.867000, lat -10.050000, elev 30 ft / 9 m msl
Status: small_airport
Scheduled airline service: no
Links: Wikipedia Mobile

Weather (top)

Current conditions for Roberts International Airport 29nm (53km) NW (rec'd 2014/07/21 07:30Z):

GLRB 210730Z 24004KT 40000 TSRA SCT004 BKN011 FEW023CB 25/24 Q1016 RMK CB-SW/NW TEMPO 6000 TSRA

Airport forecast for Roberts International Airport 29nm (53km) NW (rec'd 2014/07/22 06:51Z):

TAF TAF GLRB 220400Z 2206/2312 21010KT 8000 BKN011 FEW022 CB 
      TEMPO 2207/2211 16008KT 6000 RA/TSRA SCT005 BKN010 FEW020CB 
      TEMPO 2212/2216 22020KT 9000 
      BECMG 2217/2219 08005KT 9999 SCT013 BKN070

Latest comments (top)

No comments yet for Lamco Airport

More... (top)

See also NOTAMs and nearby airports and navaids, or visit the Lamco Airport page at the main OurAirports website..